Time;durP1;ratioP1;P1;durP2;ratioP2;P2;SDS_P1;SDS_P2;PMS_P1;PMS_P2;Temp;Humidity;BMP_temperature;BMP_pressure;BME280_temperature;BME280_humidity;BME280_pressure;Samples;Min_cycle;Max_cycle;Signal;HPM_P1;HPM_P2
2023/05/05 00:01:38;;;;;;;8.35;3.40;;;15.20;99.90;;;;;;5049414;28;20437;-68
2023/05/05 00:04:06;;;;;;;4.43;2.30;;;15.30;99.90;;;;;;5045293;28;20032;-68
2023/05/05 00:06:33;;;;;;;3.25;1.52;;;15.50;99.90;;;;;;5048983;28;20037;-66
2023/05/05 00:09:00;;;;;;;4.82;2.60;;;15.70;99.90;;;;;;5047686;28;20480;-67
2023/05/05 00:11:28;;;;;;;2.25;1.30;;;15.80;99.90;;;;;;5046123;28;20021;-69
2023/05/05 00:13:55;;;;;;;3.42;1.38;;;16.00;99.90;;;;;;5025724;28;20113;-68
2023/05/05 00:16:23;;;;;;;3.92;1.27;;;16.30;99.90;;;;;;5042050;28;20057;-68
2023/05/05 00:18:50;;;;;;;2.70;1.25;;;16.40;99.90;;;;;;5039072;28;20112;-69
2023/05/05 00:21:18;;;;;;;4.43;1.40;;;16.60;99.90;;;;;;5041420;28;20402;-70
2023/05/05 00:23:45;;;;;;;7.25;1.92;;;16.70;99.90;;;;;;5042780;28;20481;-70
2023/05/05 00:26:13;;;;;;;3.00;1.20;;;16.80;99.90;;;;;;5046740;28;20086;-71
2023/05/05 00:28:40;;;;;;;2.45;1.17;;;16.90;99.90;;;;;;5042429;28;20025;-70
2023/05/05 00:31:08;;;;;;;5.00;1.35;;;17.10;99.90;;;;;;5047983;28;20056;-71
2023/05/05 00:33:35;;;;;;;2.72;1.25;;;17.30;99.90;;;;;;5026229;28;20104;-71
2023/05/05 00:36:03;;;;;;;4.75;1.45;;;17.40;99.90;;;;;;5046618;28;20033;-71
2023/05/05 00:38:31;;;;;;;5.80;1.30;;;17.50;99.90;;;;;;5049514;28;20021;-71
2023/05/05 00:40:58;;;;;;;2.25;1.00;;;17.70;99.90;;;;;;5042883;28;20125;-71
2023/05/05 00:43:26;;;;;;;2.17;1.00;;;17.80;99.90;;;;;;5041105;28;20108;-71
2023/05/05 00:46:11;;;;;;;2.50;0.90;;;17.90;99.90;;;;;;5042634;28;20028;-71
2023/05/05 00:48:39;;;;;;;3.85;1.20;;;18.00;99.90;;;;;;5038545;28;20119;-71
2023/05/05 00:51:09;;;;;;;3.25;1.20;;;18.20;99.90;;;;;;5028360;28;20021;-70
2023/05/05 00:53:38;;;;;;;3.70;1.52;;;18.40;99.90;;;;;;5042683;28;20025;-71
2023/05/05 00:56:06;;;;;;;3.90;1.00;;;18.60;99.90;;;;;;5036744;28;20092;-71
2023/05/05 00:58:34;;;;;;;5.05;1.40;;;18.80;99.90;;;;;;5043534;28;20428;-70
2023/05/05 01:01:01;;;;;;;4.32;1.95;;;19.00;99.90;;;;;;5047769;28;20029;-71
2023/05/05 01:03:29;;;;;;;4.60;1.55;;;19.10;99.90;;;;;;5026504;28;20029;-71
2023/05/05 01:06:06;;;;;;;5.32;1.35;;;19.20;99.90;;;;;;5023932;28;20478;-71
2023/05/05 01:09:04;;;;;;;4.90;1.00;;;19.40;99.90;;;;;;5049764;28;20393;-68
2023/05/05 01:12:01;;;;;;;6.25;0.90;;;19.60;99.90;;;;;;5039203;28;20106;-71
2023/05/05 01:14:46;;;;;;;7.20;0.93;;;19.70;99.90;;;;;;5045002;28;20017;-71
2023/05/05 01:17:21;;;;;;;3.53;0.90;;;19.90;99.90;;;;;;5019258;28;20032;-71
2023/05/05 01:20:06;;;;;;;2.20;0.98;;;19.90;99.90;;;;;;5032350;28;20531;-71
2023/05/05 01:22:42;;;;;;;2.35;1.00;;;20.00;99.90;;;;;;5044095;28;20047;-70
2023/05/05 01:25:16;;;;;;;3.47;1.05;;;20.10;99.90;;;;;;5040753;28;20083;-71
2023/05/05 01:28:07;;;;;;;6.53;0.90;;;20.20;99.90;;;;;;5040281;28;20017;-71
2023/05/05 01:31:13;;;;;;;3.88;1.02;;;20.20;99.90;;;;;;5046957;28;20520;-71
2023/05/05 01:33:58;;;;;;;2.22;0.65;;;20.20;99.90;;;;;;5012236;28;20045;-71
2023/05/05 01:36:37;;;;;;;2.92;0.70;;;20.30;99.90;;;;;;5035358;28;20029;-71
2023/05/05 01:39:08;;;;;;;3.05;0.60;;;20.40;99.90;;;;;;5035348;28;20819;-71
2023/05/05 01:41:48;;;;;;;1.80;0.70;;;20.50;99.90;;;;;;5034683;28;20036;-71
2023/05/05 01:44:18;;;;;;;3.65;1.05;;;20.60;99.90;;;;;;5043079;28;20071;-71
2023/05/05 01:46:48;;;;;;;4.88;0.80;;;20.70;99.90;;;;;;5026170;28;20033;-71
2023/05/05 01:49:15;;;;;;;3.15;1.02;;;20.80;99.90;;;;;;5045965;28;20048;-71
2023/05/05 01:51:45;;;;;;;3.40;1.42;;;20.80;99.90;;;;;;5050440;28;20021;-71
2023/05/05 01:54:14;;;;;;;4.78;1.10;;;20.80;99.90;;;;;;5046604;28;20051;-71
2023/05/05 01:56:43;;;;;;;3.30;1.08;;;20.80;99.90;;;;;;5047699;28;20678;-71
2023/05/05 01:59:12;;;;;;;2.55;0.85;;;20.80;99.90;;;;;;5049116;28;20078;-71
2023/05/05 02:01:43;;;;;;;2.22;0.82;;;20.90;99.90;;;;;;5044247;28;20405;-71
2023/05/05 02:04:13;;;;;;;4.57;1.10;;;20.90;99.90;;;;;;5043474;28;20028;-71
2023/05/05 02:06:42;;;;;;;1.88;0.60;;;21.10;99.90;;;;;;5039757;28;20025;-71
2023/05/05 02:09:12;;;;;;;2.15;0.70;;;21.20;99.90;;;;;;5046004;28;20033;-71
2023/05/05 02:11:40;;;;;;;1.77;0.70;;;21.20;99.90;;;;;;5031416;28;20049;-72
2023/05/05 02:14:08;;;;;;;2.80;1.00;;;21.20;99.90;;;;;;5041527;28;20549;-71
2023/05/05 02:16:37;;;;;;;1.55;0.50;;;21.30;99.90;;;;;;5021678;28;20132;-71
2023/05/05 02:19:05;;;;;;;1.35;0.50;;;21.40;99.90;;;;;;5031670;28;20055;-71
2023/05/05 02:21:33;;;;;;;1.48;0.40;;;21.40;97.60;;;;;;5052338;28;20382;-69
2023/05/05 02:24:01;;;;;;;5.63;0.80;;;21.30;98.40;;;;;;5038740;28;20032;-70
2023/05/05 02:26:33;;;;;;;3.22;1.23;;;21.30;99.10;;;;;;5034784;28;20029;-71
2023/05/05 02:29:12;;;;;;;3.95;2.03;;;21.40;98.50;;;;;;5046217;28;20018;-71
2023/05/05 02:31:44;;;;;;;1.77;0.70;;;21.20;97.80;;;;;;5044252;28;20042;-71
2023/05/05 02:34:20;;;;;;;2.13;0.95;;;21.30;98.30;;;;;;5046381;28;20021;-72
2023/05/05 02:36:51;;;;;;;3.97;0.60;;;21.50;97.60;;;;;;5041912;28;20545;-71
2023/05/05 02:39:44;;;;;;;1.00;0.40;;;21.50;97.60;;;;;;5052286;28;20013;-71
2023/05/05 02:42:18;;;;;;;2.30;0.30;;;21.50;93.60;;;;;;5049519;28;20025;-71
2023/05/05 02:44:46;;;;;;;0.82;0.40;;;21.70;93.20;;;;;;5042418;28;20028;-72
2023/05/05 02:47:14;;;;;;;2.85;0.40;;;21.70;91.70;;;;;;5042291;28;20036;-71
2023/05/05 02:49:43;;;;;;;1.13;0.40;;;21.70;92.10;;;;;;5044431;28;20021;-71
2023/05/05 02:52:10;;;;;;;1.38;0.57;;;21.80;91.50;;;;;;5038035;28;20120;-71
2023/05/05 02:54:37;;;;;;;2.15;0.60;;;21.80;92.40;;;;;;5045947;28;20364;-71
2023/05/05 02:57:05;;;;;;;3.45;0.90;;;21.80;93.10;;;;;;5039666;28;21818;-71
2023/05/05 02:59:46;;;;;;;4.55;1.25;;;21.80;93.80;;;;;;5042414;28;20033;-72
2023/05/05 03:02:26;;;;;;;2.35;0.57;;;21.90;94.20;;;;;;5045972;28;20036;-72
2023/05/05 03:05:09;;;;;;;3.10;1.10;;;21.80;94.60;;;;;;5045214;28;20025;-71
2023/05/05 03:07:59;;;;;;;1.77;0.60;;;21.80;94.00;;;;;;5041554;28;20029;-71
2023/05/05 03:10:30;;;;;;;3.15;0.75;;;21.80;92.80;;;;;;5047410;28;20497;-71
2023/05/05 03:13:02;;;;;;;1.15;0.25;;;21.70;94.50;;;;;;5045532;28;20029;-71
2023/05/05 03:15:37;;;;;;;5.07;0.63;;;21.80;94.90;;;;;;5039721;28;20037;-71
2023/05/05 03:18:05;;;;;;;1.92;0.60;;;21.80;95.40;;;;;;5022471;28;20033;-71
2023/05/05 03:20:33;;;;;;;3.17;0.70;;;21.90;94.20;;;;;;5039479;28;20083;-72
2023/05/05 03:23:04;;;;;;;3.95;1.40;;;21.90;94.50;;;;;;5027164;28;20565;-71
2023/05/05 03:25:46;;;;;;;9.82;1.70;;;21.90;94.20;;;;;;5033751;28;20017;-71
2023/05/05 03:28:15;;;;;;;8.27;1.30;;;21.90;94.20;;;;;;5033212;28;20034;-71
2023/05/05 03:30:43;;;;;;;4.63;1.35;;;21.80;93.30;;;;;;5038827;28;20422;-71
2023/05/05 03:33:11;;;;;;;1.98;0.50;;;21.80;94.10;;;;;;5017090;28;20057;-70
2023/05/05 03:35:38;;;;;;;2.10;0.60;;;21.90;95.90;;;;;;5038563;28;20025;-69
2023/05/05 03:38:06;;;;;;;1.73;1.17;;;21.90;94.60;;;;;;5049481;28;20020;-68
2023/05/05 03:40:33;;;;;;;2.05;0.95;;;21.90;93.80;;;;;;5050605;28;20051;-71
2023/05/05 03:43:01;;;;;;;1.70;0.50;;;21.90;92.70;;;;;;5033513;28;20041;-70
2023/05/05 03:45:28;;;;;;;2.55;1.20;;;21.90;92.00;;;;;;5040350;28;20071;-71
2023/05/05 03:47:56;;;;;;;4.25;1.05;;;21.90;92.20;;;;;;5038777;28;20465;-72
2023/05/05 03:50:23;;;;;;;3.55;1.35;;;21.90;91.70;;;;;;5043776;28;20021;-71
2023/05/05 03:52:50;;;;;;;2.38;1.00;;;22.00;92.10;;;;;;5023449;28;20071;-71
2023/05/05 03:55:18;;;;;;;3.17;1.58;;;22.00;92.10;;;;;;5020568;28;20029;-71
2023/05/05 03:57:45;;;;;;;3.20;1.55;;;22.00;92.40;;;;;;5036717;28;20474;-72
2023/05/05 04:00:14;;;;;;;3.05;1.35;;;22.00;91.80;;;;;;5025777;28;20476;-71
2023/05/05 04:02:42;;;;;;;2.33;1.30;;;22.00;92.20;;;;;;5044733;28;20040;-67
2023/05/05 04:05:09;;;;;;;2.63;0.57;;;22.00;91.50;;;;;;5030047;28;20047;-69
2023/05/05 04:07:37;;;;;;;4.65;1.38;;;22.00;91.90;;;;;;5044283;28;20413;-68
2023/05/05 04:10:05;;;;;;;3.42;0.80;;;22.00;91.90;;;;;;5047680;28;20037;-67
2023/05/05 04:12:32;;;;;;;3.22;1.05;;;22.00;91.40;;;;;;5043180;28;20433;-68
2023/05/05 04:15:00;;;;;;;1.85;0.55;;;22.00;91.10;;;;;;5024886;28;20029;-68
2023/05/05 04:17:27;;;;;;;6.68;1.17;;;21.90;90.50;;;;;;5023670;28;20493;-68
2023/05/05 04:19:55;;;;;;;2.20;0.80;;;21.80;91.80;;;;;;5040036;28;20218;-64
2023/05/05 04:22:22;;;;;;;5.35;2.20;;;21.80;91.40;;;;;;5045836;28;20044;-67
2023/05/05 04:24:50;;;;;;;2.70;0.93;;;21.80;90.90;;;;;;5040518;28;20520;-68
2023/05/05 04:27:17;;;;;;;4.32;1.08;;;21.80;91.30;;;;;;5037475;28;20021;-67
2023/05/05 04:29:45;;;;;;;3.75;1.30;;;21.80;91.00;;;;;;5023320;28;20035;-68
2023/05/05 04:32:12;;;;;;;3.10;1.27;;;21.80;90.40;;;;;;5046519;28;20449;-67
2023/05/05 04:34:40;;;;;;;3.72;0.93;;;21.80;90.30;;;;;;5046665;28;20021;-68
2023/05/05 04:37:07;;;;;;;4.63;0.70;;;21.70;90.30;;;;;;5030993;28;20026;-68
2023/05/05 04:39:35;;;;;;;1.50;0.45;;;21.50;91.00;;;;;;5050517;28;20389;-68
2023/05/05 04:42:02;;;;;;;5.60;0.60;;;21.50;89.00;;;;;;5046126;28;20204;-68
2023/05/05 04:44:30;;;;;;;1.52;0.70;;;21.50;84.00;;;;;;5046475;28;20082;-68
2023/05/05 04:46:59;;;;;;;2.22;0.75;;;21.50;86.40;;;;;;5029604;28;21344;-68
2023/05/05 04:49:30;;;;;;;2.83;0.68;;;21.40;87.70;;;;;;5041916;28;20033;-68
2023/05/05 04:51:58;;;;;;;2.60;0.80;;;21.40;89.60;;;;;;5043180;28;20541;-68
2023/05/05 04:54:25;;;;;;;4.13;1.20;;;21.40;90.20;;;;;;5045304;28;20052;-68
2023/05/05 04:56:53;;;;;;;2.53;0.60;;;21.30;88.90;;;;;;5042548;28;20025;-68
2023/05/05 04:59:20;;;;;;;2.47;0.50;;;21.30;89.40;;;;;;5042974;28;20029;-69
2023/05/05 05:01:48;;;;;;;1.95;0.70;;;21.20;89.70;;;;;;5047585;28;20379;-68
2023/05/05 05:04:17;;;;;;;1.92;0.60;;;21.20;90.40;;;;;;5028324;28;20079;-67
2023/05/05 05:06:45;;;;;;;4.60;1.40;;;21.20;90.30;;;;;;5043185;28;20029;-67
2023/05/05 05:09:12;;;;;;;3.40;1.02;;;21.10;89.40;;;;;;5040994;28;20479;-68
2023/05/05 05:11:40;;;;;;;2.15;0.82;;;21.10;89.80;;;;;;5026483;28;20132;-67
2023/05/05 05:14:07;;;;;;;2.67;0.60;;;21.00;90.60;;;;;;5025028;28;20025;-67
2023/05/05 05:16:34;;;;;;;4.03;0.90;;;21.00;91.20;;;;;;5048230;28;20033;-68
2023/05/05 05:19:02;;;;;;;3.78;1.00;;;21.00;90.90;;;;;;5040367;28;20083;-68
2023/05/05 05:21:30;;;;;;;2.75;1.00;;;20.90;89.00;;;;;;5029193;28;20048;-67
2023/05/05 05:23:58;;;;;;;2.60;0.70;;;20.90;88.00;;;;;;5044392;28;20025;-67
2023/05/05 05:26:25;;;;;;;5.07;1.25;;;20.80;88.50;;;;;;5023723;28;20163;-67
2023/05/05 05:28:53;;;;;;;3.28;1.17;;;20.80;88.50;;;;;;5046536;28;20025;-66
2023/05/05 05:31:20;;;;;;;3.78;1.17;;;20.70;88.20;;;;;;5025794;28;20390;-67
2023/05/05 05:33:47;;;;;;;3.45;1.17;;;20.70;90.10;;;;;;5038471;28;20155;-67
2023/05/05 05:36:15;;;;;;;4.15;0.57;;;20.60;90.10;;;;;;5044290;28;20056;-66
2023/05/05 05:38:42;;;;;;;4.18;0.85;;;20.60;87.20;;;;;;5042244;28;20398;-67
2023/05/05 05:41:10;;;;;;;4.47;1.08;;;20.50;87.50;;;;;;5045902;28;20552;-66
2023/05/05 05:43:37;;;;;;;1.50;0.60;;;20.40;87.30;;;;;;5023842;28;20029;-66
2023/05/05 05:46:05;;;;;;;1.73;0.63;;;20.40;87.80;;;;;;5024428;28;20033;-67
2023/05/05 05:48:32;;;;;;;3.65;0.77;;;20.30;87.70;;;;;;5047352;28;20121;-66
2023/05/05 05:51:01;;;;;;;5.15;1.73;;;20.30;87.90;;;;;;5024812;28;20029;-66
2023/05/05 05:53:28;;;;;;;3.22;0.70;;;20.20;89.80;;;;;;5039038;28;20025;-67
2023/05/05 05:55:56;;;;;;;2.80;1.25;;;20.20;88.60;;;;;;5021341;28;20482;-66
2023/05/05 05:58:23;;;;;;;3.53;0.73;;;20.20;87.20;;;;;;5043314;28;20106;-67
2023/05/05 06:00:51;;;;;;;6.20;1.55;;;20.10;86.60;;;;;;5026173;28;20042;-66
2023/05/05 06:03:18;;;;;;;2.75;1.00;;;20.10;87.30;;;;;;5021497;28;20024;-66
2023/05/05 06:05:45;;;;;;;3.63;1.13;;;20.00;85.00;;;;;;5027184;28;20048;-66
2023/05/05 06:08:13;;;;;;;5.30;1.38;;;19.90;85.30;;;;;;5028203;28;20025;-66
2023/05/05 06:10:41;;;;;;;2.22;0.60;;;19.90;86.20;;;;;;5047431;28;20036;-66
2023/05/05 06:13:08;;;;;;;2.35;1.08;;;19.70;84.20;;;;;;5049269;28;20027;-66
2023/05/05 06:15:36;;;;;;;2.03;0.75;;;19.70;85.90;;;;;;5044943;28;20013;-66
2023/05/05 06:18:03;;;;;;;3.15;0.77;;;19.60;85.70;;;;;;5047424;28;20405;-66
2023/05/05 06:20:30;;;;;;;2.42;0.60;;;19.60;85.60;;;;;;5024207;28;20437;-66
2023/05/05 06:22:58;;;;;;;2.38;0.60;;;19.60;84.20;;;;;;5045296;28;20418;-66
2023/05/05 06:25:25;;;;;;;1.73;0.80;;;19.50;84.90;;;;;;5041750;28;20104;-64
2023/05/05 06:27:53;;;;;;;1.88;0.80;;;19.40;83.70;;;;;;5043122;28;20060;-66
2023/05/05 06:30:20;;;;;;;3.50;0.80;;;19.40;84.10;;;;;;5041079;28;20051;-66
2023/05/05 06:32:48;;;;;;;2.45;0.85;;;19.30;85.10;;;;;;5041455;28;20029;-66
2023/05/05 06:35:15;;;;;;;5.97;2.00;;;19.20;86.10;;;;;;5039734;28;20021;-66
2023/05/05 06:37:43;;;;;;;2.90;1.10;;;19.10;86.70;;;;;;5025265;28;20033;-66
2023/05/05 06:40:10;;;;;;;2.30;0.73;;;19.00;88.80;;;;;;5043899;28;20017;-66
2023/05/05 06:42:38;;;;;;;3.65;0.98;;;18.90;88.80;;;;;;5018052;28;20383;-66
2023/05/05 06:45:06;;;;;;;2.63;0.88;;;18.70;90.20;;;;;;5022076;28;20025;-66
2023/05/05 06:47:33;;;;;;;2.30;0.90;;;18.70;89.80;;;;;;5042497;28;20379;-65
2023/05/05 06:50:01;;;;;;;2.85;0.80;;;18.60;90.00;;;;;;5029933;28;20121;-65
2023/05/05 06:52:28;;;;;;;6.57;1.08;;;18.50;90.20;;;;;;5044043;28;20030;-65
2023/05/05 06:54:56;;;;;;;3.63;0.85;;;18.30;90.50;;;;;;5045568;28;20033;-65
2023/05/05 06:57:24;;;;;;;2.13;0.90;;;18.10;91.20;;;;;;5025301;28;20028;-65
2023/05/05 06:59:52;;;;;;;3.88;0.80;;;18.00;91.50;;;;;;5043757;28;20493;-64
2023/05/05 07:02:20;;;;;;;1.73;0.50;;;17.90;92.00;;;;;;5016609;28;20463;-65
2023/05/05 07:04:47;;;;;;;7.30;0.98;;;17.80;92.50;;;;;;5031912;28;20028;-65
2023/05/05 07:07:15;;;;;;;3.28;0.65;;;17.60;92.90;;;;;;5047093;28;20024;-65
2023/05/05 07:09:43;;;;;;;5.78;1.35;;;17.60;93.40;;;;;;5048981;28;20026;-65
2023/05/05 07:12:11;;;;;;;3.30;0.70;;;17.50;94.00;;;;;;5036126;28;20064;-64
2023/05/05 07:14:38;;;;;;;2.05;0.77;;;17.30;94.90;;;;;;5037193;28;20024;-65
2023/05/05 07:17:06;;;;;;;2.65;0.80;;;17.30;95.00;;;;;;5024669;28;20488;-65
2023/05/05 07:19:33;;;;;;;5.40;1.88;;;17.10;95.70;;;;;;5019668;28;20021;-65
2023/05/05 07:22:01;;;;;;;3.58;1.17;;;17.00;96.50;;;;;;5038219;28;20029;-64
2023/05/05 07:24:28;;;;;;;2.78;0.90;;;17.00;97.10;;;;;;5039402;28;20017;-64
2023/05/05 07:26:56;;;;;;;5.82;1.90;;;16.90;97.60;;;;;;5043938;28;20028;-64
2023/05/05 07:29:23;;;;;;;12.20;1.48;;;16.80;98.50;;;;;;5044452;28;20025;-64
2023/05/05 07:31:51;;;;;;;4.45;2.65;;;16.70;99.00;;;;;;5042961;28;20034;-64
2023/05/05 07:34:18;;;;;;;4.55;1.17;;;16.60;99.80;;;;;;5026639;28;20044;-64
2023/05/05 07:36:46;;;;;;;3.15;0.70;;;16.50;99.90;;;;;;5042257;28;20021;-64
2023/05/05 07:39:14;;;;;;;3.92;1.17;;;16.50;99.90;;;;;;5025561;28;20033;-64
2023/05/05 07:41:42;;;;;;;3.17;1.30;;;16.40;99.90;;;;;;5036050;28;20096;-64
2023/05/05 07:44:10;;;;;;;4.03;1.33;;;16.30;99.90;;;;;;5046479;28;20033;-64
2023/05/05 07:46:37;;;;;;;4.40;1.30;;;16.20;99.90;;;;;;5046688;28;20068;-65
2023/05/05 07:49:05;;;;;;;4.47;1.20;;;16.20;99.90;;;;;;5005656;28;20099;-63
2023/05/05 07:51:32;;;;;;;5.45;1.35;;;16.20;99.90;;;;;;5000615;28;20121;-63
2023/05/05 07:54:00;;;;;;;4.63;1.20;;;16.10;99.90;;;;;;5005696;28;20391;-60
2023/05/05 07:56:27;;;;;;;7.85;1.70;;;16.10;99.90;;;;;;4996824;28;20022;-61
2023/05/05 07:58:55;;;;;;;8.30;2.55;;;16.10;99.90;;;;;;5002548;28;20710;-61
2023/05/05 08:01:22;;;;;;;8.10;1.98;;;16.10;99.90;;;;;;5001820;28;20046;-61
2023/05/05 08:03:50;;;;;;;6.93;2.45;;;16.10;99.90;;;;;;4996441;28;20443;-61
2023/05/05 08:06:24;;;;;;;8.73;2.17;;;16.00;99.90;;;;;;5011120;28;20024;-61
2023/05/05 08:08:55;;;;;;;5.45;2.25;;;15.90;99.90;;;;;;4995069;28;20030;-61
2023/05/05 08:11:22;;;;;;;7.20;2.70;;;15.80;99.90;;;;;;5011324;28;20525;-61
2023/05/05 08:13:50;;;;;;;4.97;2.28;;;15.60;99.90;;;;;;5004675;28;20566;-61
2023/05/05 08:16:17;;;;;;;10.23;2.33;;;15.50;99.90;;;;;;5006766;28;20021;-61
2023/05/05 08:18:45;;;;;;;7.35;1.92;;;15.30;99.90;;;;;;5007993;28;20087;-61
2023/05/05 08:21:13;;;;;;;5.70;1.95;;;15.20;99.90;;;;;;5006791;28;20441;-61
2023/05/05 08:23:40;;;;;;;6.75;2.30;;;15.00;99.90;;;;;;5006581;28;20487;-61
2023/05/05 08:26:08;;;;;;;9.73;2.95;;;14.90;99.90;;;;;;5002505;28;20022;-60
2023/05/05 08:28:36;;;;;;;3.63;1.27;;;14.80;99.90;;;;;;5005834;28;20025;-61
2023/05/05 08:31:08;;;;;;;6.75;2.22;;;14.70;99.90;;;;;;5006010;28;20061;-60
2023/05/05 08:33:36;;;;;;;9.02;1.88;;;14.60;99.90;;;;;;5009650;28;20025;-61
2023/05/05 08:36:04;;;;;;;4.85;1.83;;;14.50;99.90;;;;;;5004714;28;20029;-61
2023/05/05 08:38:31;;;;;;;9.07;2.20;;;14.50;99.90;;;;;;5003455;28;20076;-61
2023/05/05 08:40:59;;;;;;;6.20;2.30;;;14.40;99.90;;;;;;5010538;28;20445;-61
2023/05/05 08:43:26;;;;;;;5.78;1.77;;;14.30;99.90;;;;;;5007851;28;20046;-61
2023/05/05 08:45:55;;;;;;;6.50;1.85;;;14.30;99.90;;;;;;4999770;28;20026;-62
2023/05/05 08:48:27;;;;;;;9.65;2.40;;;14.30;99.90;;;;;;5033366;28;20126;-61
2023/05/05 08:50:59;;;;;;;5.78;2.33;;;14.40;99.90;;;;;;5041832;28;20036;-62
2023/05/05 08:53:51;;;;;;;5.72;2.45;;;14.30;99.90;;;;;;5047691;28;20082;-61
2023/05/05 08:56:23;;;;;;;14.70;3.13;;;14.30;99.90;;;;;;5045160;28;20029;-61
2023/05/05 08:58:52;;;;;;;9.07;3.22;;;14.30;99.90;;;;;;5043884;28;20028;-61
2023/05/05 09:01:20;;;;;;;11.57;2.63;;;14.20;99.90;;;;;;5040146;28;20033;-66
2023/05/05 09:03:47;;;;;;;8.30;3.42;;;14.10;99.90;;;;;;5027328;28;20770;-66
2023/05/05 09:06:15;;;;;;;7.65;3.03;;;14.10;99.90;;;;;;5047169;28;20079;-65
2023/05/05 09:08:43;;;;;;;9.48;2.78;;;14.10;99.90;;;;;;5024755;28;20430;-66
2023/05/05 09:11:10;;;;;;;15.95;4.45;;;14.10;99.90;;;;;;5022775;28;20033;-65
2023/05/05 09:13:38;;;;;;;9.57;2.70;;;14.10;99.90;;;;;;5048485;28;20025;-65
2023/05/05 09:16:06;;;;;;;10.55;3.40;;;14.00;99.90;;;;;;5038217;28;20389;-65
2023/05/05 09:18:36;;;;;;;11.30;2.90;;;14.00;99.90;;;;;;5045167;28;20036;-66
2023/05/05 09:21:23;;;;;;;11.30;2.75;;;14.00;99.90;;;;;;5044001;28;20033;-66
2023/05/05 09:24:11;;;;;;;8.95;2.70;;;14.10;99.90;;;;;;5033245;28;20025;-66
2023/05/05 09:26:44;;;;;;;7.15;2.67;;;14.00;99.90;;;;;;5042059;28;20028;-66
2023/05/05 09:29:18;;;;;;;8.60;2.92;;;14.00;99.90;;;;;;5014303;28;20021;-65
2023/05/05 09:32:07;;;;;;;9.25;2.15;;;14.10;99.90;;;;;;5038599;28;20095;-66
2023/05/05 09:34:35;;;;;;;10.00;2.47;;;14.10;99.90;;;;;;5022984;28;20034;-67
2023/05/05 09:37:03;;;;;;;5.57;1.92;;;14.00;99.90;;;;;;5016368;28;20524;-64
2023/05/05 09:39:30;;;;;;;6.43;1.92;;;14.00;99.90;;;;;;5026881;28;20035;-61
2023/05/05 09:41:57;;;;;;;5.03;1.70;;;14.00;99.90;;;;;;5045574;28;20530;-62
2023/05/05 09:44:36;;;;;;;7.90;1.92;;;13.90;99.90;;;;;;5036367;28;20020;-54
2023/05/05 09:47:04;;;;;;;7.70;1.90;;;14.00;99.90;;;;;;5037690;28;20094;-61
2023/05/05 09:49:31;;;;;;;7.68;2.35;;;13.90;99.90;;;;;;5037099;28;20037;-61
2023/05/05 09:51:58;;;;;;;6.15;2.17;;;13.90;99.90;;;;;;5034967;28;20485;-62
2023/05/05 09:54:32;;;;;;;7.97;2.63;;;13.80;99.90;;;;;;5038759;28;20059;-60
2023/05/05 09:57:00;;;;;;;8.00;2.30;;;13.70;99.90;;;;;;5037193;28;20434;-60
2023/05/05 09:59:27;;;;;;;6.63;2.33;;;13.60;99.90;;;;;;5016558;28;20029;-61
2023/05/05 10:02:12;;;;;;;5.15;1.90;;;13.60;99.90;;;;;;5040931;28;20621;-60
2023/05/05 10:04:40;;;;;;;7.15;2.17;;;13.50;99.90;;;;;;5040465;28;20498;-61
2023/05/05 10:07:07;;;;;;;11.57;3.08;;;13.40;99.90;;;;;;5041025;28;20064;-59
2023/05/05 10:09:35;;;;;;;11.45;4.30;;;13.40;99.90;;;;;;5035969;28;20439;-59
2023/05/05 10:12:04;;;;;;;10.45;3.22;;;13.30;99.90;;;;;;5038049;28;20057;-59
2023/05/05 10:14:33;;;;;;;8.85;3.25;;;13.20;99.90;;;;;;5020719;28;20692;-58
2023/05/05 10:17:01;;;;;;;10.73;3.00;;;13.10;99.90;;;;;;5038903;28;20048;-60
2023/05/05 10:19:35;;;;;;;9.50;3.08;;;13.10;99.90;;;;;;5036786;28;20021;-60
2023/05/05 10:22:07;;;;;;;9.07;2.47;;;12.90;99.90;;;;;;5044470;28;20367;-59
2023/05/05 10:24:42;;;;;;;8.18;3.40;;;12.80;99.90;;;;;;5038876;28;20067;-59
2023/05/05 10:27:22;;;;;;;7.72;3.15;;;12.80;99.90;;;;;;5016429;28;20033;-59
2023/05/05 10:30:05;;;;;;;10.68;3.05;;;12.70;99.90;;;;;;5037965;28;20036;-60
2023/05/05 10:32:37;;;;;;;6.35;2.65;;;12.70;99.90;;;;;;5039582;28;20037;-59
2023/05/05 10:35:07;;;;;;;10.27;2.90;;;12.60;99.90;;;;;;5021659;28;20017;-63
2023/05/05 10:37:38;;;;;;;10.18;3.50;;;12.50;99.90;;;;;;5019308;28;20506;-60
2023/05/05 10:40:07;;;;;;;8.95;2.53;;;12.40;99.90;;;;;;5038679;28;20116;-59
2023/05/05 10:42:38;;;;;;;8.05;2.55;;;12.30;99.90;;;;;;5045428;28;20052;-59
2023/05/05 10:45:07;;;;;;;8.38;2.78;;;12.30;99.90;;;;;;5039670;28;20025;-59
2023/05/05 10:47:36;;;;;;;10.88;3.20;;;12.10;99.90;;;;;;5036351;28;20057;-58
2023/05/05 10:50:29;;;;;;;11.50;3.80;;;12.10;99.90;;;;;;5044934;28;20052;-58
2023/05/05 10:53:16;;;;;;;10.57;2.63;;;12.10;99.90;;;;;;5037286;28;20033;-59
2023/05/05 10:56:10;;;;;;;14.18;2.42;;;12.20;99.90;;;;;;5026066;28;20040;-59
2023/05/05 10:58:41;;;;;;;8.63;2.78;;;12.20;99.90;;;;;;5039578;28;20078;-61
2023/05/05 11:01:09;;;;;;;9.52;2.75;;;12.20;99.90;;;;;;5013888;28;20036;-59
2023/05/05 11:03:36;;;;;;;11.85;2.80;;;12.20;99.90;;;;;;5042902;28;20103;-60
2023/05/05 11:06:04;;;;;;;8.05;2.25;;;12.10;99.90;;;;;;5020049;28;20044;-59
2023/05/05 11:08:39;;;;;;;12.85;3.15;;;12.00;99.90;;;;;;5041292;28;20025;-60
2023/05/05 11:11:09;;;;;;;11.85;3.15;;;12.10;99.90;;;;;;5030264;28;20538;-60
2023/05/05 11:13:37;;;;;;;7.75;3.33;;;12.10;99.90;;;;;;5044153;28;20404;-60
2023/05/05 11:16:25;;;;;;;6.47;2.30;;;12.10;99.90;;;;;;5040537;28;20490;-60
2023/05/05 11:18:53;;;;;;;14.90;4.70;;;12.10;99.90;;;;;;5032697;28;20033;-60
2023/05/05 11:21:20;;;;;;;22.40;7.13;;;12.10;99.90;;;;;;5039847;28;20060;-60
2023/05/05 11:23:53;;;;;;;21.50;6.13;;;12.20;99.90;;;;;;5042376;28;20681;-60
2023/05/05 11:26:50;;;;;;;23.83;6.72;;;12.20;99.90;;;;;;5036940;28;20032;-59
2023/05/05 11:29:18;;;;;;;21.08;6.18;;;12.30;99.90;;;;;;5039084;28;20057;-60
2023/05/05 11:31:46;;;;;;;10.80;4.32;;;12.40;99.90;;;;;;5038879;28;20021;-60
2023/05/05 11:34:26;;;;;;;7.35;3.45;;;12.40;99.90;;;;;;5042079;28;20732;-59
2023/05/05 11:37:01;;;;;;;5.88;1.70;;;12.40;99.90;;;;;;5039611;28;20036;-59
2023/05/05 11:40:35;;;;;;;6.80;2.25;;;12.40;99.90;;;;;;5036440;28;20509;-60
2023/05/05 11:43:06;;;;;;;8.25;2.05;;;12.40;99.90;;;;;;4926830;28;20100;-60
2023/05/05 11:45:34;;;;;;;5.85;2.10;;;12.30;99.90;;;;;;4943345;28;20034;-59
2023/05/05 11:48:25;;;;;;;10.13;3.50;;;12.30;99.90;;;;;;4965772;28;20052;-60
2023/05/05 11:50:53;;;;;;;9.63;4.63;;;12.20;99.90;;;;;;5002587;28;20026;-59
2023/05/05 11:53:20;;;;;;;9.88;3.47;;;12.10;99.90;;;;;;5016288;28;20038;-60
2023/05/05 11:55:48;;;;;;;11.68;3.75;;;12.10;99.90;;;;;;5017667;28;20558;-60
2023/05/05 11:58:21;;;;;;;5.95;2.65;;;12.00;99.90;;;;;;5003715;28;20445;-60
2023/05/05 12:00:48;;;;;;;7.45;2.75;;;11.90;99.90;;;;;;4995446;28;20030;-60
2023/05/05 12:03:16;;;;;;;8.90;2.17;;;11.80;99.90;;;;;;5004069;28;20041;-59
2023/05/05 12:05:45;;;;;;;20.02;3.30;;;11.70;99.90;;;;;;4996067;28;20231;-60
2023/05/05 12:08:13;;;;;;;15.85;4.10;;;11.60;99.90;;;;;;5025188;28;20035;-59
2023/05/05 12:10:41;;;;;;;12.93;5.10;;;11.50;99.90;;;;;;5015774;28;20014;-61
2023/05/05 12:13:18;;;;;;;17.33;4.68;;;11.40;99.90;;;;;;4998301;28;20475;-60
2023/05/05 12:15:46;;;;;;;13.70;4.18;;;11.30;99.90;;;;;;4999284;28;20034;-59
2023/05/05 12:18:22;;;;;;;8.70;3.13;;;11.20;99.90;;;;;;5002380;28;20540;-60
2023/05/05 12:20:51;;;;;;;9.52;3.90;;;11.20;99.90;;;;;;5004574;28;20052;-59
2023/05/05 12:23:19;;;;;;;10.77;5.00;;;11.10;99.90;;;;;;4992465;28;20232;-60
2023/05/05 12:25:46;;;;;;;17.17;8.70;;;11.10;99.90;;;;;;4995194;28;20476;-59
2023/05/05 12:28:14;;;;;;;17.95;7.68;;;11.10;99.90;;;;;;4995199;28;20083;-60
2023/05/05 12:30:41;;;;;;;8.75;5.22;;;11.00;99.90;;;;;;5019548;28;20073;-60
2023/05/05 12:33:09;;;;;;;9.35;4.65;;;11.00;99.90;;;;;;5003798;28;20022;-60
2023/05/05 12:35:37;;;;;;;11.07;4.72;;;10.90;99.90;;;;;;4999319;28;20027;-60
2023/05/05 12:38:05;;;;;;;6.70;3.60;;;10.90;99.90;;;;;;5001320;28;20101;-59
2023/05/05 12:40:51;;;;;;;7.93;3.63;;;10.80;99.90;;;;;;5006049;28;20182;-60
2023/05/05 12:43:27;;;;;;;6.85;3.08;;;10.70;99.90;;;;;;4990034;28;20766;-59
2023/05/05 12:46:10;;;;;;;6.03;3.10;;;10.50;99.90;;;;;;5017400;28;20026;-60
2023/05/05 12:48:42;;;;;;;6.10;2.30;;;10.50;99.90;;;;;;5035397;28;20056;-61
2023/05/05 12:51:18;;;;;;;7.03;3.50;;;10.40;99.90;;;;;;5036890;28;20024;-60
2023/05/05 12:53:47;;;;;;;9.45;3.15;;;10.30;99.90;;;;;;5038254;28;20112;-60
2023/05/05 12:56:30;;;;;;;9.00;3.28;;;10.30;99.90;;;;;;5040613;28;20032;-60
2023/05/05 12:58:58;;;;;;;11.63;4.40;;;10.30;99.90;;;;;;5047829;28;20120;-60
2023/05/05 13:01:25;;;;;;;6.43;3.00;;;10.30;99.90;;;;;;5046215;28;20962;-61
2023/05/05 13:04:12;;;;;;;8.25;3.08;;;10.20;99.90;;;;;;5044468;28;20028;-61